createdAt,value
2023-05-25T00:01:49.317Z,34.13
2023-05-25T00:04:17.343Z,32.78
2023-05-25T00:06:45.950Z,40.30
2023-05-25T00:09:13.566Z,33.13
2023-05-25T00:11:40.946Z,30.13
2023-05-25T00:14:08.654Z,30.95
2023-05-25T00:16:37.671Z,36.28
2023-05-25T00:19:06.150Z,37.72
2023-05-25T00:21:38.282Z,41.45
2023-05-25T00:24:06.703Z,35.38
2023-05-25T00:26:35.429Z,39.40
2023-05-25T00:29:03.728Z,36.17
2023-05-25T00:31:33.577Z,33.92
2023-05-25T00:34:01.348Z,34.90
2023-05-25T00:36:28.754Z,37.67
2023-05-25T00:38:55.788Z,41.75
2023-05-25T00:41:24.270Z,43.95
2023-05-25T00:43:51.569Z,43.85
2023-05-25T00:46:19.876Z,41.85
2023-05-25T00:48:46.987Z,43.13
2023-05-25T00:51:15.802Z,43.67
2023-05-25T00:53:42.969Z,44.85
2023-05-25T00:56:15.815Z,45.08
2023-05-25T00:58:45.079Z,42.67
2023-05-25T01:01:16.394Z,45.50
2023-05-25T01:03:48.384Z,44.30
2023-05-25T01:06:17.724Z,43.92
2023-05-25T01:08:49.937Z,44.00
2023-05-25T01:11:21.740Z,45.28
2023-05-25T01:13:53.010Z,47.10
2023-05-25T01:16:21.819Z,48.95
2023-05-25T01:18:48.729Z,47.63
2023-05-25T01:21:22.152Z,51.20
2023-05-25T01:24:22.835Z,53.15
2023-05-25T01:26:58.155Z,53.17
2023-05-25T01:29:28.331Z,47.90
2023-05-25T01:31:58.503Z,49.42
2023-05-25T01:34:26.907Z,50.28
2023-05-25T01:36:54.551Z,56.90
2023-05-25T01:39:23.049Z,53.63
2023-05-25T01:41:50.518Z,55.13
2023-05-25T01:44:18.067Z,58.17
2023-05-25T01:46:45.646Z,59.33
2023-05-25T01:49:12.947Z,55.05
2023-05-25T01:52:01.543Z,56.28
2023-05-25T01:54:47.624Z,58.72
2023-05-25T01:57:17.903Z,58.35
2023-05-25T01:59:47.348Z,58.07
2023-05-25T02:02:17.698Z,58.45
2023-05-25T02:04:47.022Z,51.25
2023-05-25T02:07:14.364Z,57.28
2023-05-25T02:09:41.734Z,50.72
2023-05-25T02:12:09.303Z,53.97
2023-05-25T02:14:36.688Z,59.42
2023-05-25T02:17:04.546Z,50.75
2023-05-25T02:19:31.518Z,50.60
2023-05-25T02:21:58.782Z,51.63
2023-05-25T02:24:26.674Z,47.50
2023-05-25T02:26:54.124Z,53.95
2023-05-25T02:29:21.203Z,52.83
2023-05-25T02:31:48.756Z,49.13
2023-05-25T02:34:16.361Z,44.65
2023-05-25T02:36:45.153Z,51.60
2023-05-25T02:39:12.351Z,50.00
2023-05-25T02:41:40.239Z,52.15
2023-05-25T02:44:08.052Z,50.47
2023-05-25T02:46:35.701Z,51.33
2023-05-25T02:49:02.943Z,48.85
2023-05-25T02:51:30.366Z,48.90
2023-05-25T02:53:59.884Z,49.63
2023-05-25T02:56:27.693Z,49.80
2023-05-25T02:58:56.243Z,47.67
2023-05-25T03:01:31.866Z,41.13
2023-05-25T03:03:58.981Z,45.55
2023-05-25T03:06:27.573Z,45.83
2023-05-25T03:09:05.085Z,49.00
2023-05-25T03:11:33.130Z,48.40
2023-05-25T03:14:01.221Z,44.47
2023-05-25T03:16:30.204Z,43.92
2023-05-25T03:18:58.190Z,47.22
2023-05-25T03:21:25.812Z,49.00
2023-05-25T03:23:53.371Z,54.60
2023-05-25T03:26:20.752Z,49.97
2023-05-25T03:28:49.381Z,51.10
2023-05-25T03:31:16.614Z,47.55
2023-05-25T03:33:45.145Z,49.25
2023-05-25T03:36:13.753Z,49.10
2023-05-25T03:38:42.729Z,50.50
2023-05-25T03:41:11.472Z,47.78
2023-05-25T03:43:38.724Z,44.20
2023-05-25T03:46:08.120Z,45.20
2023-05-25T03:48:35.826Z,55.55
2023-05-25T03:51:05.063Z,50.55
2023-05-25T03:53:32.230Z,49.60
2023-05-25T03:55:59.782Z,46.40
2023-05-25T03:58:26.892Z,53.28
2023-05-25T04:00:55.053Z,48.05
2023-05-25T04:03:22.589Z,52.38
2023-05-25T04:05:50.439Z,55.40
2023-05-25T04:08:20.730Z,53.47
2023-05-25T04:10:48.150Z,49.10
2023-05-25T04:13:15.678Z,55.13
2023-05-25T04:15:43.637Z,49.97
2023-05-25T04:18:31.567Z,57.35
2023-05-25T04:21:00.180Z,52.22
2023-05-25T04:23:28.386Z,48.70
2023-05-25T04:25:58.191Z,54.80
2023-05-25T04:28:25.165Z,46.55
2023-05-25T04:30:58.496Z,52.42
2023-05-25T04:33:45.129Z,46.40
2023-05-25T04:36:26.185Z,48.00
2023-05-25T04:38:55.412Z,47.03
2023-05-25T04:41:25.851Z,41.20
2023-05-25T04:46:37.724Z,50.70
2023-05-25T04:49:06.081Z,53.25
2023-05-25T04:51:33.590Z,50.15
2023-05-25T04:54:01.324Z,49.25
2023-05-25T04:56:29.090Z,48.03
2023-05-25T04:58:57.807Z,50.38
2023-05-25T05:01:26.430Z,48.65
2023-05-25T05:03:56.647Z,48.67
2023-05-25T05:06:25.954Z,43.67
2023-05-25T05:08:53.163Z,47.20
2023-05-25T05:11:20.902Z,46.28
2023-05-25T05:13:49.025Z,45.28
2023-05-25T05:16:16.249Z,53.65
2023-05-25T05:18:43.526Z,51.75
2023-05-25T05:21:10.851Z,49.65
2023-05-25T05:23:38.342Z,50.03
2023-05-25T05:26:07.382Z,46.40
2023-05-25T05:28:34.491Z,47.17
2023-05-25T05:31:01.888Z,52.78
2023-05-25T05:33:29.326Z,49.78
2023-05-25T05:35:57.632Z,53.92
2023-05-25T05:38:24.842Z,42.05
2023-05-25T05:40:52.222Z,41.50
2023-05-25T05:43:23.119Z,41.97
2023-05-25T05:45:51.119Z,45.83
2023-05-25T05:48:19.029Z,44.35
2023-05-25T05:50:46.797Z,46.22
2023-05-25T05:53:14.546Z,44.78
2023-05-25T05:55:43.238Z,44.15
2023-05-25T05:58:10.390Z,42.15
2023-05-25T06:00:38.178Z,46.40
2023-05-25T06:03:07.176Z,47.13
2023-05-25T06:05:34.856Z,44.00
2023-05-25T06:08:05.670Z,46.33
2023-05-25T06:10:35.655Z,45.63
2023-05-25T06:13:02.662Z,49.08
2023-05-25T06:15:30.809Z,43.05
2023-05-25T06:18:00.650Z,43.28
2023-05-25T06:20:28.081Z,46.45
2023-05-25T06:22:55.576Z,43.03
2023-05-25T06:25:24.635Z,42.42
2023-05-25T06:27:52.039Z,42.47
2023-05-25T06:30:19.513Z,43.13
2023-05-25T06:32:48.631Z,38.33
2023-05-25T06:35:20.056Z,43.30
2023-05-25T06:37:51.103Z,47.00
2023-05-25T06:40:20.165Z,41.67
2023-05-25T06:42:47.297Z,37.10
2023-05-25T06:45:43.917Z,44.33
2023-05-25T06:48:11.680Z,40.90
2023-05-25T06:50:40.336Z,46.80
2023-05-25T06:53:07.820Z,43.38
2023-05-25T06:55:35.191Z,45.65
2023-05-25T06:58:02.189Z,47.35
2023-05-25T07:00:29.772Z,43.58
2023-05-25T07:02:56.983Z,38.45
2023-05-25T07:05:24.645Z,38.45
2023-05-25T07:07:51.720Z,46.03
2023-05-25T07:10:20.576Z,40.53
2023-05-25T07:12:47.654Z,41.50
2023-05-25T07:15:16.438Z,52.08
2023-05-25T07:17:43.547Z,40.22
2023-05-25T07:20:13.227Z,40.08
2023-05-25T07:22:40.376Z,42.17
2023-05-25T07:25:08.711Z,35.85
2023-05-25T07:27:36.272Z,35.17
2023-05-25T07:30:04.378Z,40.53
2023-05-25T07:32:32.298Z,42.65
2023-05-25T07:34:59.620Z,38.03
2023-05-25T07:37:26.922Z,35.60
2023-05-25T07:39:54.594Z,38.00
2023-05-25T07:42:21.981Z,36.15
2023-05-25T07:44:49.529Z,39.50
2023-05-25T07:47:16.836Z,36.60
2023-05-25T07:49:44.246Z,40.05
2023-05-25T07:52:12.126Z,41.20
2023-05-25T07:54:40.480Z,41.42
2023-05-25T07:57:08.285Z,35.25
2023-05-25T07:59:35.642Z,44.08
2023-05-25T08:02:03.928Z,38.13
2023-05-25T08:04:32.080Z,37.45
2023-05-25T08:06:59.222Z,41.22
2023-05-25T08:09:27.066Z,36.28
2023-05-25T08:12:03.867Z,38.55
2023-05-25T08:14:40.642Z,36.20
2023-05-25T08:17:07.747Z,36.33
2023-05-25T08:19:35.125Z,34.40
2023-05-25T08:22:02.967Z,36.38
2023-05-25T08:24:30.133Z,38.00
2023-05-25T08:26:57.569Z,39.85
2023-05-25T08:29:24.882Z,40.17
2023-05-25T08:31:52.093Z,32.85
2023-05-25T08:34:19.471Z,36.13
2023-05-25T08:36:46.606Z,35.20
2023-05-25T08:39:14.339Z,34.38
2023-05-25T08:41:43.964Z,32.72
2023-05-25T08:44:14.799Z,37.03
2023-05-25T08:46:42.235Z,34.38
2023-05-25T08:49:12.406Z,33.63
2023-05-25T08:51:48.194Z,35.13
2023-05-25T08:54:18.632Z,42.50
2023-05-25T08:56:49.612Z,35.72
2023-05-25T08:59:42.865Z,35.25
2023-05-25T09:02:39.407Z,36.97
2023-05-25T09:05:08.677Z,29.67
2023-05-25T09:07:36.069Z,35.05
2023-05-25T09:10:04.971Z,35.78
2023-05-25T09:12:32.457Z,32.03
2023-05-25T09:14:59.995Z,26.83
2023-05-25T09:17:27.553Z,31.25
2023-05-25T09:19:55.127Z,34.10
2023-05-25T09:22:22.531Z,30.52
2023-05-25T09:24:50.008Z,31.75
2023-05-25T09:27:19.360Z,35.38
2023-05-25T09:29:48.384Z,30.13
2023-05-25T09:32:16.931Z,34.78
2023-05-25T09:34:45.713Z,33.15
2023-05-25T09:37:15.250Z,31.13
2023-05-25T09:39:43.849Z,32.58
2023-05-25T09:42:12.142Z,28.55
2023-05-25T09:44:42.651Z,28.88
2023-05-25T09:47:10.190Z,30.63
2023-05-25T09:49:38.746Z,65.40
2023-05-25T09:52:06.670Z,62.30
2023-05-25T09:54:34.411Z,95.85
2023-05-25T09:57:04.105Z,43.55
2023-05-25T09:59:32.608Z,36.90
2023-05-25T10:02:00.127Z,30.40
2023-05-25T10:04:27.695Z,30.25
2023-05-25T10:06:57.239Z,27.90
2023-05-25T10:09:28.799Z,35.23
2023-05-25T10:11:57.536Z,31.97
2023-05-25T10:14:30.293Z,33.70
2023-05-25T10:16:59.698Z,33.35
2023-05-25T10:19:37.035Z,33.75
2023-05-25T10:22:15.615Z,29.67
2023-05-25T10:25:00.878Z,30.70
2023-05-25T10:27:34.334Z,30.77
2023-05-25T10:30:02.229Z,29.38
2023-05-25T10:32:30.181Z,34.67
2023-05-25T10:34:57.537Z,31.83
2023-05-25T10:37:28.706Z,28.58
2023-05-25T10:42:27.780Z,31.52
2023-05-25T10:44:56.665Z,30.83
2023-05-25T10:47:28.879Z,30.90
2023-05-25T10:49:58.372Z,34.92
2023-05-25T10:52:30.996Z,29.55
2023-05-25T10:55:04.386Z,34.05
2023-05-25T10:57:31.975Z,33.05
2023-05-25T11:00:08.908Z,27.23
2023-05-25T11:02:55.809Z,29.38
2023-05-25T11:05:26.575Z,29.65
2023-05-25T11:07:54.893Z,27.02
2023-05-25T11:10:50.208Z,27.55
2023-05-25T11:13:40.934Z,25.05
2023-05-25T11:16:15.339Z,27.98
2023-05-25T11:18:43.872Z,24.95
2023-05-25T11:21:44.496Z,27.17
2023-05-25T11:24:16.536Z,26.48
2023-05-25T11:26:56.032Z,27.23
2023-05-25T11:29:25.474Z,26.67
2023-05-25T11:31:55.286Z,28.45
2023-05-25T11:34:26.282Z,27.80
2023-05-25T11:36:58.651Z,28.10
2023-05-25T11:39:26.185Z,25.83
2023-05-25T11:42:02.148Z,28.27
2023-05-25T11:44:31.081Z,26.98
2023-05-25T11:47:02.024Z,26.17
2023-05-25T11:49:29.432Z,23.75
2023-05-25T11:51:57.966Z,24.73
2023-05-25T11:54:29.347Z,19.38
2023-05-25T11:56:59.965Z,24.98
2023-05-25T11:59:29.613Z,21.77
2023-05-25T12:02:01.556Z,22.40
2023-05-25T12:04:30.151Z,20.48
2023-05-25T12:07:05.061Z,17.25
2023-05-25T12:09:32.920Z,17.70
2023-05-25T12:12:01.545Z,21.02
2023-05-25T12:14:28.821Z,20.83
2023-05-25T12:16:56.968Z,20.20
2023-05-25T12:19:24.160Z,25.95
2023-05-25T12:21:52.581Z,18.50
2023-05-25T12:24:19.822Z,19.65
2023-05-25T12:26:48.337Z,22.85
2023-05-25T12:29:15.356Z,16.73
2023-05-25T12:31:43.107Z,17.83
2023-05-25T12:34:12.869Z,18.02
2023-05-25T12:36:48.677Z,15.77
2023-05-25T12:39:17.142Z,18.15
2023-05-25T12:41:45.569Z,25.25
2023-05-25T12:44:37.106Z,16.63
2023-05-25T12:47:11.913Z,19.08
2023-05-25T12:49:40.762Z,18.38
2023-05-25T12:52:09.272Z,17.95
2023-05-25T12:54:44.832Z,13.55
2023-05-25T12:57:17.400Z,17.58
2023-05-25T12:59:46.851Z,16.98
2023-05-25T13:02:15.032Z,20.92
2023-05-25T13:04:42.590Z,17.13
2023-05-25T13:07:10.712Z,18.70
2023-05-25T13:09:38.788Z,17.33
2023-05-25T13:12:07.091Z,15.20
2023-05-25T13:14:34.072Z,19.27
2023-05-25T13:17:01.646Z,14.40
2023-05-25T13:19:29.389Z,16.77
2023-05-25T13:21:56.859Z,19.55
2023-05-25T13:24:24.723Z,16.40
2023-05-25T13:26:52.405Z,13.82
2023-05-25T13:29:20.015Z,17.85
2023-05-25T13:31:48.439Z,16.60
2023-05-25T13:34:15.852Z,17.77
2023-05-25T13:36:43.330Z,16.60
2023-05-25T13:39:13.528Z,14.02
2023-05-25T13:41:41.985Z,17.00
2023-05-25T13:44:11.424Z,13.38
2023-05-25T13:46:39.055Z,12.25
2023-05-25T13:49:06.550Z,14.65
2023-05-25T13:51:35.810Z,23.27
2023-05-25T13:54:03.226Z,12.80
2023-05-25T13:56:31.279Z,13.82
2023-05-25T13:58:58.585Z,10.88
2023-05-25T14:01:30.669Z,12.27
2023-05-25T14:03:59.978Z,12.15
2023-05-25T14:06:28.953Z,13.48
2023-05-25T14:08:55.861Z,14.65
2023-05-25T14:11:28.606Z,16.17
2023-05-25T14:13:57.381Z,12.55
2023-05-25T14:16:25.407Z,12.95
2023-05-25T14:18:52.999Z,14.00
2023-05-25T14:21:20.794Z,11.05
2023-05-25T14:23:48.045Z,10.63
2023-05-25T14:26:16.101Z,12.68
2023-05-25T14:28:43.405Z,12.65
2023-05-25T14:31:12.404Z,13.35
2023-05-25T14:33:42.870Z,11.88
2023-05-25T14:36:10.645Z,12.35
2023-05-25T14:38:38.192Z,11.75
2023-05-25T14:41:05.546Z,13.95
2023-05-25T14:43:33.272Z,15.65
2023-05-25T14:46:00.806Z,14.77
2023-05-25T14:48:27.755Z,13.43
2023-05-25T14:50:55.262Z,11.07
2023-05-25T14:53:22.201Z,17.55
2023-05-25T14:55:49.603Z,14.40
2023-05-25T14:58:16.863Z,13.48
2023-05-25T15:00:44.226Z,12.88
2023-05-25T15:03:11.578Z,14.70
2023-05-25T15:05:39.567Z,11.68
2023-05-25T15:08:07.079Z,16.42
2023-05-25T15:10:34.430Z,15.05
2023-05-25T15:13:01.601Z,29.48
2023-05-25T15:15:30.888Z,31.70
2023-05-25T15:17:57.906Z,25.75
2023-05-25T15:20:25.533Z,13.05
2023-05-25T15:22:54.186Z,17.42
2023-05-25T15:25:34.905Z,14.00
2023-05-25T15:30:33.566Z,18.35
2023-05-25T15:33:02.661Z,15.35
2023-05-25T15:35:32.867Z,13.93
2023-05-25T15:38:01.424Z,16.37
2023-05-25T15:40:29.072Z,50.00
2023-05-25T15:42:56.407Z,22.38
2023-05-25T15:45:25.203Z,12.43
2023-05-25T15:47:52.292Z,8.55
2023-05-25T15:50:19.785Z,11.88
2023-05-25T15:52:47.332Z,15.27
2023-05-25T15:55:14.926Z,11.25
2023-05-25T15:57:42.379Z,13.27
2023-05-25T16:00:10.602Z,12.65
2023-05-25T16:02:37.843Z,14.77
2023-05-25T16:05:07.208Z,11.40
2023-05-25T16:07:34.225Z,12.25
2023-05-25T16:10:01.643Z,10.60
2023-05-25T16:12:28.975Z,12.25
2023-05-25T16:14:56.355Z,11.60
2023-05-25T16:17:23.345Z,11.07
2023-05-25T16:19:50.535Z,13.02
2023-05-25T16:22:17.528Z,13.82
2023-05-25T16:24:46.162Z,10.27
2023-05-25T16:27:13.092Z,12.50
2023-05-25T16:29:41.307Z,12.75
2023-05-25T16:32:08.431Z,11.85
2023-05-25T16:34:36.229Z,13.18
2023-05-25T16:37:03.439Z,16.38
2023-05-25T16:39:30.659Z,13.20
2023-05-25T16:41:58.568Z,12.45
2023-05-25T16:44:26.466Z,11.05
2023-05-25T16:46:53.405Z,16.67
2023-05-25T16:49:21.190Z,13.02
2023-05-25T16:51:48.198Z,12.75
2023-05-25T16:54:16.743Z,10.88
2023-05-25T16:56:43.818Z,11.73
2023-05-25T16:59:11.096Z,17.08
2023-05-25T17:01:38.056Z,19.77
2023-05-25T17:04:06.474Z,17.40
2023-05-25T17:06:34.139Z,18.33
2023-05-25T17:09:01.777Z,14.13
2023-05-25T17:11:29.410Z,13.70
2023-05-25T17:13:57.629Z,15.45
2023-05-25T17:16:24.738Z,13.60
2023-05-25T17:18:52.010Z,12.02
2023-05-25T17:21:19.271Z,14.57
2023-05-25T17:23:47.394Z,14.52
2023-05-25T17:26:14.330Z,12.55
2023-05-25T17:28:41.968Z,18.05
2023-05-25T17:31:09.689Z,13.10
2023-05-25T17:33:39.032Z,13.57
2023-05-25T17:36:06.834Z,15.05
2023-05-25T17:38:37.105Z,12.25
2023-05-25T17:41:05.095Z,18.50
2023-05-25T17:43:32.430Z,13.98
2023-05-25T17:46:00.022Z,15.40
2023-05-25T17:48:27.748Z,12.27
2023-05-25T17:50:56.687Z,15.35
2023-05-25T17:53:24.212Z,13.75
2023-05-25T17:55:51.502Z,13.52
2023-05-25T17:58:18.950Z,16.83
2023-05-25T18:00:48.206Z,16.02
2023-05-25T18:03:19.091Z,17.42
2023-05-25T18:05:46.917Z,14.15
2023-05-25T18:08:14.736Z,12.80
2023-05-25T18:10:42.016Z,12.13
2023-05-25T18:13:09.367Z,13.60
2023-05-25T18:15:36.501Z,18.27
2023-05-25T18:18:05.773Z,15.57
2023-05-25T18:20:33.275Z,14.20
2023-05-25T18:23:00.942Z,16.42
2023-05-25T18:25:28.340Z,17.63
2023-05-25T18:27:56.059Z,16.33
2023-05-25T18:30:23.497Z,16.92
2023-05-25T18:32:51.900Z,14.93
2023-05-25T18:35:19.095Z,19.15
2023-05-25T18:37:46.424Z,16.95
2023-05-25T18:40:13.986Z,16.45
2023-05-25T18:42:41.554Z,15.35
2023-05-25T18:45:09.157Z,14.18
2023-05-25T18:47:36.675Z,14.15
2023-05-25T18:50:04.648Z,14.15
2023-05-25T18:52:32.339Z,14.73
2023-05-25T18:54:59.461Z,14.20
2023-05-25T18:57:28.973Z,15.27
2023-05-25T18:59:56.187Z,13.88
2023-05-25T19:02:24.398Z,16.15
2023-05-25T19:04:51.471Z,11.38
2023-05-25T19:07:19.014Z,13.75
2023-05-25T19:09:48.356Z,14.75
2023-05-25T19:12:15.976Z,19.10
2023-05-25T19:14:43.424Z,17.92
2023-05-25T19:17:10.930Z,17.40
2023-05-25T19:19:38.549Z,13.90
2023-05-25T19:22:06.860Z,16.42
2023-05-25T19:24:33.889Z,13.73
2023-05-25T19:27:01.923Z,16.20
2023-05-25T19:29:28.935Z,16.98
2023-05-25T19:31:56.692Z,14.98
2023-05-25T19:34:24.319Z,15.43
2023-05-25T19:37:00.080Z,22.00
2023-05-25T19:39:32.017Z,15.77
2023-05-25T19:41:59.964Z,15.65
2023-05-25T19:44:27.371Z,17.45
2023-05-25T19:46:54.769Z,12.40
2023-05-25T19:49:22.165Z,15.25
2023-05-25T19:51:49.616Z,16.35
2023-05-25T19:54:16.838Z,15.13
2023-05-25T19:56:45.083Z,14.25
2023-05-25T19:59:12.601Z,12.48
2023-05-25T20:01:39.998Z,11.68
2023-05-25T20:04:07.421Z,12.45
2023-05-25T20:06:34.986Z,15.90
2023-05-25T20:09:02.178Z,15.00
2023-05-25T20:11:29.633Z,14.20
2023-05-25T20:13:56.667Z,14.85
2023-05-25T20:16:26.049Z,14.38
2023-05-25T20:18:53.166Z,19.08
2023-05-25T20:21:21.241Z,16.08
2023-05-25T20:23:48.152Z,15.80
2023-05-25T20:26:15.644Z,18.55
2023-05-25T20:28:42.782Z,16.92
2023-05-25T20:31:10.134Z,16.88
2023-05-25T20:33:37.334Z,15.07
2023-05-25T20:36:04.701Z,14.88
2023-05-25T20:38:32.201Z,15.40
2023-05-25T20:40:59.429Z,12.63
2023-05-25T20:43:26.522Z,16.48
2023-05-25T20:45:53.704Z,16.15
2023-05-25T20:48:21.184Z,20.63
2023-05-25T20:50:48.555Z,22.13
2023-05-25T20:53:15.913Z,15.25
2023-05-25T20:55:43.270Z,16.88
2023-05-25T20:58:10.908Z,18.00
2023-05-25T21:00:38.344Z,17.42
2023-05-25T21:03:08.456Z,17.17
2023-05-25T21:05:38.137Z,17.45
2023-05-25T21:08:06.076Z,16.42
2023-05-25T21:10:33.371Z,19.55
2023-05-25T21:13:00.734Z,17.05
2023-05-25T21:15:28.296Z,16.13
2023-05-25T21:17:55.861Z,17.90
2023-05-25T21:20:23.174Z,18.55
2023-05-25T21:22:50.250Z,16.48
2023-05-25T21:25:17.608Z,22.85
2023-05-25T21:27:44.478Z,14.90
2023-05-25T21:30:12.281Z,20.70
2023-05-25T21:32:39.756Z,14.43
2023-05-25T21:35:07.505Z,14.55
2023-05-25T21:37:34.879Z,13.82
2023-05-25T21:40:02.844Z,19.60
2023-05-25T21:42:29.942Z,14.88
2023-05-25T21:44:57.240Z,14.75
2023-05-25T21:47:25.252Z,13.73
2023-05-25T21:49:53.141Z,12.45
2023-05-25T21:52:20.109Z,11.57
2023-05-25T21:54:47.620Z,13.77
2023-05-25T21:57:16.554Z,13.73
2023-05-25T21:59:44.074Z,14.68
2023-05-25T22:02:11.477Z,11.35
2023-05-25T22:04:38.984Z,15.25
2023-05-25T22:07:05.998Z,11.80
2023-05-25T22:09:33.616Z,12.27
2023-05-25T22:12:00.600Z,20.17
2023-05-25T22:14:28.346Z,13.45
2023-05-25T22:16:55.514Z,16.58
2023-05-25T22:19:23.013Z,13.65
2023-05-25T22:21:50.060Z,13.38
2023-05-25T22:24:17.550Z,16.63
2023-05-25T22:26:44.604Z,10.45
2023-05-25T22:29:12.307Z,12.23
2023-05-25T22:31:39.503Z,10.07
2023-05-25T22:34:07.263Z,11.25
2023-05-25T22:36:34.524Z,10.63
2023-05-25T22:39:02.291Z,15.02
2023-05-25T22:41:29.222Z,12.70
2023-05-25T22:43:56.904Z,12.05
2023-05-25T22:46:23.940Z,15.07
2023-05-25T22:48:51.736Z,11.18
2023-05-25T22:51:18.736Z,11.45
2023-05-25T22:53:46.212Z,11.05
2023-05-25T22:56:13.152Z,11.07
2023-05-25T22:58:40.959Z,9.25
2023-05-25T23:01:08.077Z,10.52
2023-05-25T23:03:35.651Z,10.68
2023-05-25T23:06:02.677Z,11.70
2023-05-25T23:08:30.503Z,11.52
2023-05-25T23:10:57.629Z,10.82
2023-05-25T23:13:25.071Z,13.00
2023-05-25T23:15:52.589Z,13.93
2023-05-25T23:18:19.873Z,15.13
2023-05-25T23:20:46.908Z,30.63
2023-05-25T23:23:14.777Z,13.48
2023-05-25T23:25:41.735Z,14.20
2023-05-25T23:28:09.242Z,10.63
2023-05-25T23:30:36.342Z,13.57
2023-05-25T23:33:04.235Z,13.23
2023-05-25T23:35:31.544Z,11.52
2023-05-25T23:38:01.587Z,14.20
2023-05-25T23:40:29.335Z,12.60
2023-05-25T23:42:56.787Z,13.30
2023-05-25T23:45:24.080Z,9.63
2023-05-25T23:47:51.440Z,12.48
2023-05-25T23:50:18.865Z,10.88
2023-05-25T23:52:46.450Z,11.45
2023-05-25T23:55:14.168Z,11.38
2023-05-25T23:57:41.493Z,9.30
